Extreme weather reports worldwide

Atmospheric pressure

Low pressure

Station
 
Location
 
Name
 
Wind
Knots
Gust
Knots
Vis
SM
Temp/Dew
C
Baro
inHg
METAR
 
ULWC 4 14 4.97 1/0 28.46 ULWC 301730Z 17002G07MPS 8000 -SHSNRA BKN007 OVC013CB 01/M00 Q0964 R21/690145 NOSIG RMK QFE713/0951
IAR UUDL RU Tunoshna Airport 12 21 4.97 0/-3 28.61 UUDL 301730Z 21006G11MPS 8000 -SHSN BLSN OVC016CB M00/M03 Q0969 R23/////// NOSIG RMK QFE719
PES ULPB Petrozavodsk, RU Petrozavodsk Airport 10 4.97 -6/-8 28.70 ULPB 301700Z AUTO 01005MPS 8000 -SN ///018/// M06/M08 Q0972 RMK QFE725/0966
MDO PAMD Middleton Island, US Middleton Island Airport 18 10 3/2 28.74 PAMD 301751Z AUTO 13018KT 10SM -RA SCT008 BKN013 OVC030 03/03 A2874 RMK AO2 SLP719 P0000 60003 T00330028 10039 20033 56008
SVO UUEE Moscow, RU Sheremetyevo International Airport 19 29 1.06 -3/-5 28.76 UUEE 301730Z 24010G15MPS 1700 1200NE R24L/P2000D R24C/P2000D R24R/P2000N SN OVC011 M03/M05 Q0974 R88/590235 TEMPO 0700 +SHSN BKN011CB

Station
 
Location
 
Name
 
Wind
Knots
Gust
Knots
Vis
SM
Temp/Dew
C
Baro
inHg
METAR
 
LED ULLI St. Petersburg, RU Pulkovo Airport 14 2.17 -6/-7 28.76 ULLI 301730Z 30007MPS 3500 -SN BLSN BKN009 OVC019 M06/M07 Q0974 RESN R28R/451050 TEMPO 1100 SN BKN005 OVC016
SVL EFSA Savonlinna, FI Savonlinna Airport 9 3.73 -7/-9 28.79 EFSA 301750Z AUTO 35009KT 6000 -SN OVC035 M07/M09 Q0975
SWD PAWD Seward, US Seward Airport 11 10 -4/-8 28.80 PAWD 301753Z AUTO 02011KT 10SM OVC055 M04/M08 A2880 RMK AO2 SLP751 60000 T10441083 11028 21061 55002 TSNO $
LPP EFLP Lappeenranta, FI Lappeenranta Airport 8 2.17 -7/-9 28.82 EFLP 301750Z AUTO 33008KT 290V350 3500 -SN BKN007 OVC020 M07/M09 Q0976
JOE EFJO Joensuu / Liperi, FI Joensuu Airport 6 1.86 -7/-9 28.82 EFJO 301750Z AUTO 36006KT 310V050 3000 -SN OVC011 M07/M09 Q0976
VKO UUWW Moscow, RU Vnukovo International Airport 21 0.62 -3/-5 28.82 UUWW 301730Z 23011MPS 1000 R24/P2000U SN BKN009 OVC024 M03/M05 Q0976 WS R24 R24/490537 TEMPO 0700 +SHSN BKN012CB
FRN PAFR Fort Richardson(Anchorage), US Bryant Army Heliport 0 10 -13/-14 28.82 PAFR 301658Z AUTO 00000KT 10SM BKN100 BKN110 BKN140 M13/M14 A2882 RMK AO2 SLP773 T11301145 PNO $
PAQ PAAQ Palmer, US Warren "Bud" Woods Palmer Municipal Airport 6 10 -8/-11 28.84 PAAQ 301753Z 06006KT 10SM SCT100 BKN130 M09/M12 A2884 RMK AO2 SLP774 T10891117 11033 21094 55000
UTI EFUT Utti / Valkeala, FI Utti Air Base 11 2.11 -8/-10 28.85 EFUT 301750Z AUTO 32011KT 3400 -SN FEW009 OVC021 M08/M10 Q0977
MIK EFMI Mikkeli, FI Mikkeli Airport 6 2.11 -8/-9 28.85 EFMI 301750Z AUTO 31006KT 280V350 3400 -SN OVC024 M08/M09 Q0977
OSF UUMO Moscow, RU Ostafyevo International Airport 17 27 3.04 -2/-4 28.85 UUMO 301730Z 24009G14MPS 4900 -SN OVC015 M02/M04 Q0977 R25/590332 NOSIG RMK QFE718/0957
DME UUDD Moscow, RU Domodedovo International Airport 17 27 1.06 -2/-4 28.85 UUDD 301730Z 23009G14MPS 1700 1400SW R14L/P2000U SN BKN011 OVC026 M02/M04 Q0977 WS R14R R14R/590337 R14L/590339 TEMPO 0600 +SHSN BKN012CB
ZIA UUBW Moscow, RU Zhukovsky International Airport 16 27 2.55 -2/-4 28.85 UUBW 301730Z 23008G14MPS 4100 -SN OVC014 M02/M04 Q0977 R30/550235 TEMPO 1000 SHSN BKN012CB
PAZK 8 3 -18/-20 28.85 PAZK 301756Z AUTO 05008KT 3SM -SN BR M18/M21 A2885 RMK AO2 SLP862 P0000 60000 T11831206 11178 21194 56014 FZRANO $
TKA PATK Talkeetna, US Talkeetna Airport 5 10 -1/-12 28.86 PATK 301753Z 03005KT 10SM CLR M01/M13 A2886 RMK AO2 SLP777 T10111128 10000 21011 56012
ANC PANC Anchorage, US Ted Stevens Anchorage International Airport 7 10 -2/-11 28.86 PANC 301753Z 02007KT 10SM SCT075 OVC090 M03/M11 A2886 RMK AO2 SLP775 4/005 T10281111 11028 21050 56006
PAPT 3 1 -13/-13 28.86 PAPT 301745Z 35003KT 1SM -SN OVC025 M13/M13 A2886 RMK NO SPECI FIRST
EDF PAED Anchorage, US Elmendorf Air Force Base 0 10 -6/-10 28.86 PAED 301656Z 00000KT 10SM FEW018 FEW090 BKN100 M07/M11 A2886 RMK AO2A SLP772 T10691109 $
WWA PAWS Wasilla, US Wasilla Airport 10 20 10 -3/-12 28.87 PAWS 301756Z AUTO 05010G20KT 10SM BKN085 BKN110 M04/M13 A2887 RMK AO2 SLP784 60000 T10391128 11028 21039 55004 FZRANO
PATO 0 1.75 -6/-7 28.87 PATO 301753Z AUTO 00000KT 1 3/4SM BR BKN011 OVC021 M07/M08 A2887 RMK AO2 SLP776 I1002 I6002 T10671078 11067 21083 55000 PWINO FZRANO TSNO $
MRI PAMR Anchorage, US Merrill Field 0 10 -7/-11 28.87 PAMR 301753Z 00000KT 10SM BKN075 OVC090 M07/M11 A2887 RMK AO2 SLP778 T10721111 11067 21089 55005 $
PALH Anchorage, US Lake Hood Airport 6 10 -3/-10 28.87 PALH 301753Z AUTO 04006KT 10SM BKN080 OVC095 M03/M10 A2887 RMK AO2 SLP779 T10331100 11033 21072 56006 TSNO
CDV PACV Cordova, US Merle K (Mudhole) Smith Airport 6 4 2/0 28.87 PACV 301753Z VRB06KT 4SM -RA OVC017 03/00 A2887 RMK AO2 SNE22 SLP775 4/017 P0007 60042 T00280000 10044 20022 58008
KUO EFKU Kuopio / Siilinjärvi, FI Kuopio Airport 11 2.55 -7/-9 28.88 EFKU 301750Z AUTO 35011KT 4100 -SN OVC024 M07/M09 Q0978
PABV Birchwood, US Birchwood Airport 0 10 -10/-11 28.88 PABV 301756Z AUTO 00000KT 10SM FEW120 M10/M12 A2888 RMK AO2 SLP786 T11001117 11100 21117 55004 FZRANO
ENA PAEN Kenai, US Kenai Municipal Airport 5 0.75 -7/-7 28.90 PAEN 301753Z COR 21005KT 3/4SM SN BR VV011 M07/M08 A2890 RMK AO2 SLP789 P0000 60000 T10721078 11028 21072 53002
GOJ UWGG Nizhny Novgorod, RU Nizhny Novgorod Strigino International Airport 19 6.21 1/-1 28.91 UWGG 301730Z 21010MPS 9999 OVC010CB 01/M01 Q0979 R18L/290050 NOSIG
SXQ PASX Soldotna, US Soldotna Airport 0 1.5 -7/-8 28.92 PASX 301756Z AUTO 00000KT 1 1/2SM -SN BR OVC014 M07/M08 A2892 RMK AO2 SLP802 P0001 60001 T10721083 11072 21089 53001 FZRANO
SOV PASO Seldovia, US Seldovia Airport 0 10 -6/-7 28.92 PASO 301753Z AUTO 00000KT 10SM FEW018 SCT033 BKN080 M07/M08 A2892 RMK AO2 SLP793 60008 T10671078 11050 21067 52008 TSNO
HOM PAHO Homer, US Homer Airport 0 10 -7/-8 28.92 PAHO 301753Z 00000KT 10SM -SN FEW017 OVC031 M07/M09 A2892 RMK AO2 UPB24E51SNE24B52 SLP793 P0000 60014 T10721089 11061 21072 53004
JYV EFJY Jyväskylän Maalaiskunta, FI Jyvaskyla Airport 14 3.11 -9/-11 28.94 EFJY 301750Z 33014KT 5000 -SN FEW012 BKN030 BKN040 M09/M11 Q0980
SCW UUYY Syktyvkar, RU Syktyvkar Airport 8 5.59 -4/-5 28.94 UUYY 301730Z 06004MPS 9000 SCT009 BKN021CB OVC031 M04/M05 Q0980 R36/450536 NOSIG RMK QFE726/0969
PKV ULOO Pskov, RU Pskov Airport 10 6.21 -6/-8 28.94 ULOO 301730Z 28005MPS 220V320 9999 -SN OVC009 M06/M08 Q0980 R01/990531 NOSIG RMK QFE731
ARH ULAA Archangelsk, RU Talagi Airport 17 27 2.61 -10/-12 28.94 ULAA 301730Z 09009G14MPS 4200 -SHSN BLSN OVC006CB M10/M12 Q0980 R08/450345 NOSIG RMK QBB180 QFE734/0979
KLW PAKW Klawock, US Klawock Airport 7 4 6/5 28.95 PAKW 301753Z AUTO 14007KT 080V170 4SM RA BR OVC033 07/05 A2895 RMK AO2 SLP802 P0018 60039 T00670050 10067 20022 56048 TSNO
ADQ PADQ Kodiak, US Kodiak Airport 4 10 -1/-5 28.96 PADQ 301753Z 31004KT 10SM BKN037 M02/M05 A2896 RMK AO2 SLP806 T10171050 10000 21017
KEV EFHA Halli / Kuorevesi, FI Halli Airport 11 6.21 -11/-13 28.97 EFHA 301750Z AUTO 32011KT 9999 -SN BKN017 M11/M13 Q0981
TAY EETU Tartu, EE Tartu Airport 16 27 6.21 -6/-9 28.97 EETU 301750Z AUTO 28016G27KT 9999 -SN OVC009/// M06/M09 Q0981
KLF UUBC Kaluga, RU Grabtsevo Airport 16 27 4.35 -1/-4 28.97 UUBC 301730Z 24008G14MPS 7000 -SN OVC015 M01/M04 Q0981 R31/590528 NOSIG RMK QFE720/0960
MCL PAIN McKinley Park, US McKinley National Park Airport 7 10 -23/-26 28.98 PAIN 301756Z AUTO 35007KT 10SM FEW075 M24/M27 A2898 RMK AO2 SLP877 60000 T12391267 11239 21267 56014 FZRANO
KAJ EFKI Kajaani, FI Kajaani Airport 11 1.43 -8/-10 29.00 EFKI 301750Z AUTO 36011KT 2300 SN OVC012 M08/M10 Q0982
HEL EFHK Helsinki, FI Helsinki Vantaa Airport 14 4.35 -10/-12 29.00 EFHK 301750Z 31014KT 7000 -SN BKN017 M10/M12 Q0982 TEMPO 8000
YMH CYMH Mary's Harbour, CA Mary's Harbour Airport 10 17 5 9/9 29.00 CYMH 301758Z AUTO 18010G17KT 5SM BR OVC004 09/09 A2900 RMK SLP822 DENSITY ALT 400FT
HYG PAHY Hydaburg, US Hydaburg Seaplane Base 26 36 1.5 8/7 29.00 PAHY 301756Z AUTO 11026G36KT 1 1/2SM RA BR BKN019 OVC026 09/08 A2900 RMK AO2 SLP817 6//// T00890078 10089 20067 56063 PNO $
SVW PASV Sparrevohn, US Sparrevohn LRRS Airport 4 7 -25/-28 29.00 PASV 301755Z AUTO 13004KT 7SM -SN SCT006 BKN120 M25/M28 A2900 RMK AO2 SNB1655 SLP900 P0000 60000 T12541284 11252 21281 54001 $

High pressure

Station
 
Location
 
Name
 
Wind
Knots
Gust
Knots
Vis
SM
Temp/Dew
C
Baro
inHg
METAR
 
KMYP 15 10 -2/-9 30.57 KMYP 301715Z AUTO 24015KT 10SM CLR M02/M09 A3057 RMK AO2
FLW LPFL Santa Cruz das Flores, PT Flores Airport 5 6.21 18/13 30.56 LPFL 301730Z 33005KT 9999 FEW019 SCT040 18/13 Q1035
HOR LPHR Horta, PT Horta Airport 8 6.21 18/12 30.56 LPHR 301730Z 03008KT 360V060 9999 FEW016 BKN033 18/12 Q1035
TER LPLA Praia da Vitória, PT Lajes Airport 6.21 19/15 30.53 LPLA 301700Z /////KT 9999 FEW022 BKN040 19/15 Q1034
LPB SLLP La Paz / El Alto, BO El Alto International Airport 8 6.21 15/6 30.53 SLLP 301700Z 11008KT 9999 SCT017 FEW020CB BKN200 15/06 Q1034

Station
 
Location
 
Name
 
Wind
Knots
Gust
Knots
Vis
SM
Temp/Dew
C
Baro
inHg
METAR
 
KCPW 6 10 0/-16 30.53 KCPW 301732Z AUTO 03006KT 10SM CLR 00/M16 A3053 RMK AO2
ANS SPHY Andahuaylas, PE Andahuaylas Airport 9 6.21 12/6 30.50 SPHY 301700Z 02009KT 9999 FEW012 BKN070 12/06 Q1033 RMK BIRD HAZARD RWY03/21 PP000
URC ZWWW Ürümqi, CN Ürümqi Diwopu International Airport 2 4.97 -7/-11 30.50 ZWWW 301730Z VRB01MPS 8000 NSC M07/M11 Q1033 NOSIG
K5SM 0 10 0/-14 30.50 K5SM 301735Z AUTO 00000KT 10SM CLR 00/M14 A3050 RMK AO2
KCCU 5 10 0/-14 30.49 KCCU 301735Z AUTO 24005KT 10SM CLR 00/M14 A3049 RMK AO2
TUA SETU Tulcán, EC Teniente Coronel Luis a Mantilla Airport 6 6.21 15/10 30.47 SETU 301700Z 12006KT 9999 BKN020 OVC100 15/10 Q1032
POI SLPO Potosí, BO Capitan Nicolas Rojas Airport 8 6.21 15/5 30.47 SLPO 301700Z 06008KT 9999 FEW017 BKN200 15/05 Q1032
XIY ZLXY Xi'an, CN Xi'an Xianyang International Airport 4 6.21 -2/-5 30.47 ZLXY 301700Z 02002MPS CAVOK M02/M05 Q1032 NOSIG
PDL LPPD Ponta Delgada, PT João Paulo II Airport 7 4.97 17/16 30.47 LPPD 301730Z 01007KT 340V060 8000 -SHRA SCT008 BKN012 17/16 Q1032
MMH KMMH Mammoth Lakes, US Mammoth Yosemite Airport 3 10 7/-5 30.46 KMMH 301739Z AUTO 15003KT 10SM CLR 07/M05 A3046 RMK AO2
EKO KEKO Elko, US Elko Regional Airport 7 10 0/-6 30.46 KEKO 301756Z AUTO 07007KT 10SM CLR 00/M06 A3046 RMK AO2 SLP334 T00001061 10000 21072 53018
K4BM 3 10 0/-13 30.45 K4BM 301735Z AUTO 24003KT 10SM CLR 00/M13 A3045 RMK AO2 LTG DSNT E
ORU SLOR Oruro, BO Juan Mendoza Airport 3 6.21 17/4 30.44 SLOR 301700Z 19003KT 9999 FEW020 BKN200 17/04 Q1031
JUL SPJL Juliaca, PE Inca Manco Capac International Airport 3 6.21 17/-3 30.44 SPJL 301700Z 25003KT 9999 SCT020 SCT080 17/M03 Q1031 RMK PP000
CGO ZHCC Zhengzhou, CN Zhengzhou Xinzheng International Airport 2 6.21 0/-9 30.44 ZHCC 301700Z VRB01MPS CAVOK M00/M09 Q1031 NOSIG
NKG ZSNJ Nanjing, CN Nanjing Lukou Airport 4 6.21 4/-4 30.44 ZSNJ 301700Z 34002MPS CAVOK 04/M04 Q1031 NOSIG
HFE ZSOF Hefei, CN Hefei Luogang International Airport 2 6.21 2/-3 30.44 ZSOF 301700Z 33001MPS CAVOK 02/M03 Q1031 NOSIG
KHG ZWSH Kashgar, CN Kashgar Airport 6 6.21 -3/-11 30.44 ZWSH 301700Z AUTO 32003MPS 9999 // ////// M03/M11 Q1031
SMA LPAZ Vila do Porto, PT Santa Maria Airport 17 6.21 18/16 30.44 LPAZ 301730Z 01017KT 9999 FEW006 BKN012 18/16 Q1031
KTMT 0 10 2/-5 30.44 KTMT 301730Z AUTO 00000KT 10SM CLR 03/M05 A3044 RMK AO2 T00251055
TKF KTRK Truckee, US Truckee Tahoe Airport 0 10 1/-2 30.44 KTRK 301745Z AUTO 00000KT 10SM SKC 01/M02 A3044
K3S8 0 10 8/6 30.44 K3S8 301755Z AUTO 00000KT 10SM OVC007 08/06 A3044 RMK AO2
BAM KBAM Battle Mountain, US Battle Mountain Airport 6 10 3/-2 30.44 KBAM 301755Z AUTO 04006KT 10SM CLR 03/M02 A3044 RMK AO1
ENV KENV Wendover, US Wendover Airport 5 10 3/-3 30.44 KENV 301756Z AUTO 19005KT 10SM CLR 04/M04 A3044 RMK AO2 SLP330 T00391039 10050 21067 53015
SLT KANK Salida, US Salida Airport Harriett Alexander Field 0 10 8/-7 30.43 KANK 301735Z AUTO 00000KT 10SM CLR 09/M07 A3043 RMK AO1 T00871070
BMC KBMC Brigham City, US Brigham City Regional Airport 0 5 3/0 30.43 KBMC 301735Z AUTO 00000KT 5SM CLR 04/00 A3043 RMK AO1 T00390003
KC07 3 10 -2/-6 30.43 KC07 301735Z AUTO 27003KT 10SM CLR M02/M06 A3043 RMK AO2
K05U 6 10 7/-6 30.43 K05U 301755Z AUTO 22006KT 10SM CLR 07/M06 A3043 RMK A01
KSPK 0 9 5/0 30.43 KSPK 301755Z AUTO 00000KT 9SM CLR 05/00 A3043 RMK AO2
KU55 4 10 6/-8 30.43 KU55 301755Z AUTO 24004KT 10SM CLR 06/M08 A3043 RMK A01
PVU KPVU Provo, US Provo Municipal Airport 0 10 5/-1 30.43 KPVU 301756Z 00000KT 10SM BKN200 05/M01 A3043 RMK AO2 SLP318 T00501011 10050 21050 53003
TLC MMTO Toluca, MX Licenciado Adolfo Lopez Mateos International Airport 5 3 18/6 30.42 MMTO 301749Z 24005KT 3SM HZ SCT025 18/06 A3042 RMK SLP130 57012 902 8/200 CI
LOL KLOL Lovelock, US Derby Field 0 10 3/-3 30.42 KLOL 301753Z AUTO 00000KT 10SM CLR 04/M03 A3042 RMK AO2 SLP319 T00391033 10044 21067 53012
ONO KONO Ontario, US Ontario Municipal Airport 0 0.25 0/0 30.42 KONO 301753Z AUTO 00000KT M1/4SM FG VV002 01/M01 A3042 RMK AO2 SLP324 I1000 I6001 T00061006 10006 21017 50007
KSIY Montague, US Siskiyou County Airport 4 0.25 1/0 30.42 KSIY 301753Z AUTO 05004KT 1/4SM FG VV002 02/01 A3042 RMK AO2 SLP330 I6006 T00170006 10017 21011 53009
TVL KTVL South Lake Tahoe, US Lake Tahoe Airport 3 10 6/-1 30.42 KTVL 301753Z AUTO 05003KT 10SM CLR 07/M01 A3042 RMK AO2 SLP295 T00671011 10067 21050 50004
CSN KCXP Carson City, US Carson Airport 0 10 7/-4 30.42 KCXP 301755Z AUTO 00000KT 10SM CLR 07/M04 A3042 RMK AO2
KRTS 0 10 5/-3 30.42 KRTS 301755Z AUTO 00000KT 10SM CLR 05/M03 A3042 RMK AO2
KTVY Tooele, US Bolinder Field Tooele Valley Airport 5 10 7/1 30.42 KTVY 301755Z AUTO 31005KT 10SM CLR 07/01 A3042 RMK AO2
KVTP 4 10 2/-8 30.42 KVTP 301755Z AUTO 11004KT 10SM CLR 02/M08 A3042 RMK AO2
WMC KWMC Winnemucca, US Winnemucca Municipal Airport 3 10 4/-2 30.42 KWMC 301756Z AUTO 04003KT 10SM CLR 04/M03 A3042 RMK AO2 SLP313 T00441028 10044 21061 53013
SJW ZBSJ Shijiazhuang, CN Shijiazhuang Daguocun International Airport 4 6.21 -1/-9 30.41 ZBSJ 301700Z 18002MPS 150V220 CAVOK M01/M09 Q1030 NOSIG
CSX ZGHA Changsha, CN Changsha Huanghua International Airport 4 6.21 6/0 30.41 ZGHA 301700Z 35002MPS CAVOK 06/M00 Q1030 NOSIG
WUH ZHHH Wuhan, CN Wuhan Tianhe International Airport 6 6.21 5/-5 30.41 ZHHH 301700Z 06003MPS CAVOK 05/M05 Q1030 NOSIG
TYN ZBYN Taiyuan, CN Taiyuan Wusu Airport 2 6.21 -7/-14 30.41 ZBYN 301730Z 10001MPS CAVOK M07/M14 Q1030 NOSIG